Kitwanga, Canada
Current Conditions -  °F | °C
As of 10:00 PM on Wednesday 22 Oct 2014 (Local Time) from CYYD Reporting Station
Overcast Overcast  
Wind Chill: 41°   Ceiling: 3300
Heat Index: 41°   Visibility: 9mi
Dew Point: 41°   Wind: 3mph
Humidity: 100%   Direction: 30°NNE
Pressure: 29.43"   Gusts: NA
Location:  55.1°N, 128.07°W
Report Text: CYYD 230500Z AUTO 03003KT 9SM OVC033 05/05 A2943 RMK PCPN 0.5MM PAST HR SLP978
Loading
Personal Weather Stations






























Interactive Weather Map
Tropical Storm Tracking
New forecast layout! Learn more

10-Day Weather Forecast

Advertisements
Track Severe Weather on mobile